createdAt,value
2017-10-11T00:01:45.556Z,13.90
2017-10-11T00:04:12.517Z,13.90
2017-10-11T00:06:38.697Z,13.90
2017-10-11T00:09:05.027Z,13.80
2017-10-11T00:11:31.229Z,13.90
2017-10-11T00:13:57.448Z,13.80
2017-10-11T00:16:23.675Z,13.90
2017-10-11T00:18:49.898Z,13.90
2017-10-11T00:21:16.089Z,13.90
2017-10-11T00:23:43.050Z,14.00
2017-10-11T00:26:09.236Z,14.00
2017-10-11T00:28:35.588Z,14.00
2017-10-11T00:31:02.509Z,14.10
2017-10-11T00:33:28.720Z,14.10
2017-10-11T00:35:55.974Z,14.10
2017-10-11T00:38:22.198Z,14.10
2017-10-11T00:40:48.417Z,14.10
2017-10-11T00:43:15.817Z,14.20
2017-10-11T00:45:42.001Z,14.20
2017-10-11T00:48:08.314Z,14.20
2017-10-11T00:50:34.511Z,14.20
2017-10-11T00:53:01.437Z,14.20
2017-10-11T00:55:27.669Z,14.20
2017-10-11T00:57:53.957Z,14.20
2017-10-11T01:00:20.173Z,14.20
2017-10-11T01:02:46.362Z,14.20
2017-10-11T01:05:12.581Z,14.20
2017-10-11T01:07:38.802Z,14.20
2017-10-11T01:10:05.040Z,14.20
2017-10-11T01:12:31.250Z,14.20
2017-10-11T01:14:57.523Z,14.20
2017-10-11T01:17:39.429Z,14.20
2017-10-11T01:20:05.652Z,14.20
2017-10-11T01:22:31.857Z,14.20
2017-10-11T01:24:58.106Z,14.30
2017-10-11T01:27:25.062Z,14.20
2017-10-11T01:29:51.348Z,14.20
2017-10-11T01:32:17.552Z,14.30
2017-10-11T01:34:43.777Z,14.20
2017-10-11T01:37:09.993Z,14.20
2017-10-11T01:39:36.221Z,14.10
2017-10-11T01:42:02.433Z,14.10
2017-10-11T01:44:28.662Z,14.10
2017-10-11T01:46:54.862Z,14.00
2017-10-11T01:49:21.824Z,14.00
2017-10-11T01:51:48.029Z,14.00
2017-10-11T01:54:14.273Z,13.90
2017-10-11T01:56:41.229Z,13.90
2017-10-11T01:59:07.493Z,13.80
2017-10-11T02:01:33.680Z,13.80
2017-10-11T02:03:59.874Z,13.80
2017-10-11T02:06:26.090Z,13.80
2017-10-11T02:08:52.273Z,13.80
2017-10-11T02:11:18.481Z,13.80
2017-10-11T02:13:45.413Z,13.80
2017-10-11T02:16:11.625Z,13.80
2017-10-11T02:18:37.837Z,13.90
2017-10-11T02:21:04.057Z,13.90
2017-10-11T02:23:30.301Z,13.90
2017-10-11T02:25:57.262Z,14.00
2017-10-11T02:28:23.465Z,14.00
2017-10-11T02:30:49.682Z,14.00
2017-10-11T02:33:15.904Z,14.00
2017-10-11T02:35:42.132Z,14.00
2017-10-11T02:38:08.313Z,14.00
2017-10-11T02:40:35.243Z,14.10
2017-10-11T02:43:01.460Z,14.10
2017-10-11T02:45:27.643Z,14.10
2017-10-11T02:47:53.871Z,14.10
2017-10-11T02:50:20.073Z,14.20
2017-10-11T02:52:47.014Z,14.20
2017-10-11T02:55:13.958Z,14.20
2017-10-11T02:57:40.157Z,14.20
2017-10-11T03:00:06.346Z,14.20
2017-10-11T03:02:32.533Z,14.20
2017-10-11T03:04:58.741Z,14.30
2017-10-11T03:07:24.921Z,14.30
2017-10-11T03:09:51.135Z,14.30
2017-10-11T03:12:18.061Z,14.30
2017-10-11T03:14:44.274Z,14.30
2017-10-11T03:17:10.471Z,14.30
2017-10-11T03:19:37.054Z,14.30
2017-10-11T03:22:03.242Z,14.30
2017-10-11T03:24:29.457Z,14.30
2017-10-11T03:26:55.645Z,14.30
2017-10-11T03:29:22.596Z,14.30
2017-10-11T03:31:49.541Z,14.30
2017-10-11T03:34:16.469Z,14.30
2017-10-11T03:36:42.709Z,14.30
2017-10-11T03:39:09.641Z,14.30
2017-10-11T03:41:35.905Z,14.30
2017-10-11T03:44:02.099Z,14.30
2017-10-11T03:46:28.312Z,14.30
2017-10-11T03:48:54.507Z,14.30
2017-10-11T03:51:20.686Z,14.30
2017-10-11T03:53:46.885Z,14.30
2017-10-11T03:56:13.098Z,14.30
2017-10-11T03:58:39.308Z,14.30
2017-10-11T04:01:05.614Z,14.30
2017-10-11T04:03:32.552Z,14.30
2017-10-11T04:05:59.480Z,14.30
2017-10-11T04:08:25.682Z,14.30
2017-10-11T04:10:51.896Z,14.30
2017-10-11T04:13:18.141Z,14.30
2017-10-11T04:15:44.323Z,14.30
2017-10-11T04:18:11.372Z,14.30
2017-10-11T04:20:37.556Z,14.30
2017-10-11T04:23:03.817Z,14.30
2017-10-11T04:25:30.757Z,14.20
2017-10-11T04:27:57.748Z,14.20
2017-10-11T04:30:24.004Z,14.20
2017-10-11T04:32:50.261Z,14.20
2017-10-11T04:35:16.458Z,14.30
2017-10-11T04:37:42.714Z,14.30
2017-10-11T04:40:09.663Z,14.30
2017-10-11T04:42:36.643Z,14.30
2017-10-11T04:45:02.861Z,14.30
2017-10-11T04:47:29.096Z,14.30
2017-10-11T04:49:55.292Z,14.30
2017-10-11T04:52:22.354Z,14.20
2017-10-11T04:54:48.565Z,14.20
2017-10-11T04:57:15.477Z,14.00
2017-10-11T04:59:41.701Z,14.00
2017-10-11T05:02:07.908Z,14.00
2017-10-11T05:04:34.107Z,13.90
2017-10-11T05:07:00.305Z,13.90
2017-10-11T05:09:26.552Z,13.80
2017-10-11T05:11:52.777Z,13.80
2017-10-11T05:14:19.727Z,13.80
2017-10-11T05:16:46.696Z,13.80
2017-10-11T05:19:12.912Z,13.80
2017-10-11T05:21:39.100Z,13.80
2017-10-11T05:24:05.354Z,13.80
2017-10-11T05:26:32.273Z,13.80
2017-10-11T05:28:58.564Z,13.80
2017-10-11T05:31:24.759Z,13.80
2017-10-11T05:33:51.696Z,13.90
2017-10-11T05:36:18.650Z,13.90
2017-10-11T05:38:45.594Z,13.90
2017-10-11T05:41:12.537Z,13.90
2017-10-11T05:43:39.467Z,13.90
2017-10-11T05:46:05.713Z,13.90
2017-10-11T05:48:32.634Z,13.90
2017-10-11T05:50:58.922Z,13.90
2017-10-11T05:53:25.105Z,13.90
2017-10-11T05:55:51.417Z,13.90
2017-10-11T05:58:17.608Z,13.90
2017-10-11T06:00:43.861Z,13.90
2017-10-11T06:03:10.033Z,13.90
2017-10-11T06:05:37.006Z,13.90
2017-10-11T06:08:03.185Z,13.90
2017-10-11T06:10:29.365Z,13.90
2017-10-11T06:12:55.588Z,13.80
2017-10-11T06:15:21.808Z,13.70
2017-10-11T06:17:48.766Z,13.30
2017-10-11T06:20:14.949Z,13.30
2017-10-11T06:22:41.896Z,13.10
2017-10-11T06:25:08.830Z,13.00
2017-10-11T06:27:35.062Z,13.00
2017-10-11T06:30:01.254Z,13.00
2017-10-11T06:32:27.485Z,13.00
2017-10-11T06:34:53.682Z,13.00
2017-10-11T06:37:19.925Z,13.00
2017-10-11T06:39:46.142Z,13.00
2017-10-11T06:42:12.337Z,13.00
2017-10-11T06:44:39.286Z,13.10
2017-10-11T06:47:06.210Z,13.10
2017-10-11T06:49:32.427Z,13.10
2017-10-11T06:51:58.638Z,13.20
2017-10-11T06:54:24.890Z,13.20
2017-10-11T06:56:51.120Z,13.10
2017-10-11T06:59:17.324Z,13.10
2017-10-11T07:01:43.525Z,13.10
2017-10-11T07:04:09.739Z,13.20
2017-10-11T07:06:36.703Z,13.30
2017-10-11T07:09:02.997Z,13.30
2017-10-11T07:11:29.926Z,13.40
2017-10-11T07:13:56.148Z,13.40
2017-10-11T07:16:22.526Z,13.50
2017-10-11T07:18:48.731Z,13.50
2017-10-11T07:21:15.674Z,13.70
2017-10-11T07:23:42.629Z,13.80
2017-10-11T07:26:09.565Z,13.90
2017-10-11T07:28:36.517Z,13.90
2017-10-11T07:31:03.485Z,13.90
2017-10-11T07:33:29.669Z,13.90
2017-10-11T07:35:55.885Z,13.90
2017-10-11T07:38:22.950Z,13.90
2017-10-11T07:40:49.877Z,13.90
2017-10-11T07:43:16.117Z,13.90
2017-10-11T07:45:42.369Z,14.00
2017-10-11T07:48:09.365Z,14.10
2017-10-11T07:50:35.601Z,14.10
2017-10-11T07:53:02.553Z,14.20
2017-10-11T07:55:28.848Z,14.10
2017-10-11T07:57:55.056Z,14.20
2017-10-11T08:00:21.390Z,14.20
2017-10-11T08:02:47.636Z,14.20
2017-10-11T08:05:13.977Z,14.20
2017-10-11T08:07:40.925Z,14.30
2017-10-11T08:10:07.213Z,14.30
2017-10-11T08:12:34.157Z,14.50
2017-10-11T08:15:01.180Z,14.40
2017-10-11T08:17:27.430Z,14.40
2017-10-11T08:19:54.375Z,14.30
2017-10-11T08:22:21.334Z,14.20
2017-10-11T08:24:47.583Z,14.20
2017-10-11T08:27:13.806Z,14.10
2017-10-11T08:29:40.065Z,14.10
2017-10-11T08:32:06.301Z,14.00
2017-10-11T08:34:32.518Z,14.00
2017-10-11T08:36:58.810Z,14.10
2017-10-11T08:39:25.044Z,14.10
2017-10-11T08:41:51.266Z,14.10
2017-10-11T08:44:17.518Z,14.20
2017-10-11T08:46:43.781Z,14.30
2017-10-11T08:49:10.055Z,14.40
2017-10-11T08:51:36.307Z,14.40
2017-10-11T08:54:02.525Z,14.20
2017-10-11T08:56:28.754Z,14.20
2017-10-11T08:58:54.937Z,14.20
2017-10-11T09:01:21.873Z,14.40
2017-10-11T09:03:48.093Z,14.40
2017-10-11T09:06:14.329Z,14.60
2017-10-11T09:08:40.512Z,14.70
2017-10-11T09:11:06.773Z,14.80
2017-10-11T09:13:33.016Z,14.90
2017-10-11T09:15:59.309Z,15.00
2017-10-11T09:18:25.546Z,14.90
2017-10-11T09:20:51.781Z,15.10
2017-10-11T09:23:18.110Z,15.20
2017-10-11T09:25:44.304Z,15.20
2017-10-11T09:28:10.582Z,15.30
2017-10-11T09:30:36.889Z,15.40
2017-10-11T09:33:03.210Z,15.40
2017-10-11T09:35:29.398Z,15.40
2017-10-11T09:37:56.413Z,15.20
2017-10-11T09:40:22.633Z,15.20
2017-10-11T09:42:48.873Z,15.30
2017-10-11T09:45:15.105Z,15.20
2017-10-11T09:47:41.321Z,15.10
2017-10-11T09:50:07.558Z,15.00
2017-10-11T09:52:33.837Z,15.10
2017-10-11T09:55:00.117Z,15.00
2017-10-11T09:57:26.426Z,15.10
2017-10-11T09:59:52.648Z,15.20
2017-10-11T10:02:18.993Z,15.40
2017-10-11T10:04:45.266Z,15.40
2017-10-11T10:07:11.517Z,15.40
2017-10-11T10:09:37.757Z,15.40
2017-10-11T10:12:04.017Z,15.50
2017-10-11T10:14:30.336Z,15.40
2017-10-11T10:16:56.570Z,15.40
2017-10-11T10:19:29.785Z,15.40
2017-10-11T10:21:56.055Z,15.40
2017-10-11T10:24:22.270Z,15.50
2017-10-11T10:26:48.470Z,15.60
2017-10-11T10:29:14.756Z,15.50
2017-10-11T10:31:40.977Z,15.50
2017-10-11T10:34:07.173Z,15.50
2017-10-11T10:36:34.093Z,15.50
2017-10-11T10:39:00.301Z,15.40
2017-10-11T10:41:26.505Z,15.50
2017-10-11T10:43:52.709Z,15.50
2017-10-11T10:46:18.922Z,15.50
2017-10-11T10:48:45.894Z,15.50
2017-10-11T10:51:12.827Z,15.50
2017-10-11T10:53:39.055Z,15.50
2017-10-11T10:56:05.249Z,15.50
2017-10-11T10:58:31.491Z,15.40
2017-10-11T11:00:58.421Z,15.40
2017-10-11T11:03:24.710Z,15.40
2017-10-11T11:05:50.927Z,15.40
2017-10-11T11:08:17.156Z,15.40
2017-10-11T11:10:43.381Z,15.40
2017-10-11T11:13:09.606Z,15.50
2017-10-11T11:15:35.814Z,15.50
2017-10-11T11:18:02.764Z,15.60
2017-10-11T11:20:29.689Z,15.70
2017-10-11T11:22:56.667Z,15.70
2017-10-11T11:25:22.901Z,15.70
2017-10-11T11:27:49.178Z,15.70
2017-10-11T11:30:15.968Z,15.90
2017-10-11T11:32:42.411Z,15.90
2017-10-11T11:35:09.051Z,16.00
2017-10-11T11:37:35.261Z,16.10
2017-10-11T11:40:01.641Z,16.20
2017-10-11T11:42:27.837Z,16.10
2017-10-11T11:44:54.090Z,16.30
2017-10-11T11:47:20.353Z,16.20
2017-10-11T11:49:46.629Z,16.20
2017-10-11T11:52:12.857Z,16.10
2017-10-11T11:54:39.164Z,16.10
2017-10-11T11:57:05.383Z,16.20
2017-10-11T11:59:32.434Z,16.50
2017-10-11T12:01:58.717Z,16.40
2017-10-11T12:04:24.945Z,16.70
2017-10-11T12:06:51.164Z,16.80
2017-10-11T12:09:17.380Z,16.90
2017-10-11T12:11:43.589Z,16.80
2017-10-11T12:14:09.773Z,16.60
2017-10-11T12:16:35.997Z,16.50
2017-10-11T12:19:02.209Z,16.60
2017-10-11T12:21:29.489Z,16.60
2017-10-11T12:23:56.565Z,16.70
2017-10-11T12:26:22.770Z,16.70
2017-10-11T12:28:49.777Z,16.60
2017-10-11T12:31:15.961Z,16.50
2017-10-11T12:33:42.237Z,16.50
2017-10-11T12:36:08.457Z,16.40
2017-10-11T12:38:34.925Z,16.40
2017-10-11T12:41:01.162Z,16.20
2017-10-11T12:43:28.121Z,16.20
2017-10-11T12:45:55.110Z,16.30
2017-10-11T12:48:21.373Z,16.30
2017-10-11T12:50:47.718Z,16.30
2017-10-11T12:53:13.942Z,16.20
2017-10-11T12:55:40.965Z,16.20
2017-10-11T12:58:07.204Z,16.20
2017-10-11T13:00:33.552Z,16.20
2017-10-11T13:03:00.507Z,16.00
2017-10-11T13:05:27.450Z,15.90
2017-10-11T13:07:54.386Z,16.00
2017-10-11T13:10:21.350Z,15.80
2017-10-11T13:12:47.562Z,15.80
2017-10-11T13:15:13.771Z,15.80
2017-10-11T13:17:40.742Z,15.60
2017-10-11T13:20:07.677Z,15.60
2017-10-11T13:22:34.693Z,15.60
2017-10-11T13:25:00.906Z,15.60
2017-10-11T13:27:27.168Z,15.50
2017-10-11T13:29:53.466Z,15.50
2017-10-11T13:32:19.696Z,15.50
2017-10-11T13:34:45.940Z,15.50
2017-10-11T13:37:12.133Z,15.50
2017-10-11T13:39:38.353Z,15.50
2017-10-11T13:42:04.609Z,15.60
2017-10-11T13:44:30.822Z,15.60
2017-10-11T13:46:57.061Z,15.70
2017-10-11T13:49:23.294Z,15.80
2017-10-11T13:51:49.496Z,15.80
2017-10-11T13:54:15.751Z,16.00
2017-10-11T13:56:41.977Z,16.00
2017-10-11T13:59:08.211Z,16.00
2017-10-11T14:01:34.450Z,15.80
2017-10-11T14:04:00.658Z,15.80
2017-10-11T14:06:26.878Z,15.70
2017-10-11T14:08:53.072Z,15.70
2017-10-11T14:11:20.022Z,15.70
2017-10-11T14:13:46.206Z,15.70
2017-10-11T14:16:12.430Z,15.60
2017-10-11T14:18:38.649Z,15.60
2017-10-11T14:21:04.910Z,15.60
2017-10-11T14:23:31.237Z,15.60
2017-10-11T14:25:57.470Z,15.50
2017-10-11T14:28:24.488Z,15.40
2017-10-11T14:30:50.737Z,15.40
2017-10-11T14:33:16.969Z,15.30
2017-10-11T14:35:43.181Z,15.30
2017-10-11T14:38:09.382Z,15.30
2017-10-11T14:40:35.602Z,15.20
2017-10-11T14:43:01.784Z,15.30
2017-10-11T14:45:28.833Z,15.20
2017-10-11T14:47:55.859Z,15.20
2017-10-11T14:50:22.078Z,15.20
2017-10-11T14:52:48.293Z,15.20
2017-10-11T14:55:14.534Z,15.20
2017-10-11T14:57:40.766Z,15.20
2017-10-11T15:00:07.038Z,15.10
2017-10-11T15:02:33.982Z,15.10
2017-10-11T15:05:00.934Z,15.10
2017-10-11T15:07:27.191Z,15.10
2017-10-11T15:09:53.427Z,15.10
2017-10-11T15:12:19.707Z,15.10
2017-10-11T15:14:46.662Z,15.00
2017-10-11T15:17:12.921Z,15.00
2017-10-11T15:19:39.191Z,15.00
2017-10-11T15:22:05.407Z,15.00
2017-10-11T15:24:31.609Z,15.00
2017-10-11T15:26:57.840Z,15.00
2017-10-11T15:29:24.081Z,15.00
2017-10-11T15:31:50.258Z,15.00
2017-10-11T15:34:17.206Z,15.00
2017-10-11T15:36:44.193Z,15.10
2017-10-11T15:39:10.398Z,15.10
2017-10-11T15:41:36.630Z,15.00
2017-10-11T15:44:02.818Z,15.00
2017-10-11T15:46:29.839Z,15.00
2017-10-11T15:48:56.066Z,15.00
2017-10-11T15:51:22.993Z,15.00
2017-10-11T15:53:50.261Z,15.00
2017-10-11T15:56:16.458Z,15.00
2017-10-11T15:58:42.652Z,15.10
2017-10-11T16:01:09.661Z,15.10
2017-10-11T16:03:35.905Z,15.00
2017-10-11T16:06:02.105Z,15.10
2017-10-11T16:08:28.289Z,15.10
2017-10-11T16:10:55.264Z,15.00
2017-10-11T16:13:21.452Z,15.00
2017-10-11T16:15:48.469Z,15.00
2017-10-11T16:18:14.664Z,15.00
2017-10-11T16:20:40.865Z,15.00
2017-10-11T16:23:07.785Z,15.00
2017-10-11T16:25:34.005Z,15.00
2017-10-11T16:28:00.333Z,15.00
2017-10-11T16:30:26.648Z,15.00
2017-10-11T16:32:52.854Z,15.00
2017-10-11T16:35:19.246Z,15.00
2017-10-11T16:37:46.251Z,14.90
2017-10-11T16:40:12.485Z,14.90
2017-10-11T16:42:38.673Z,15.00
2017-10-11T16:45:04.932Z,14.90
2017-10-11T16:47:31.182Z,14.90
2017-10-11T16:49:57.389Z,14.90
2017-10-11T16:52:23.603Z,14.80
2017-10-11T16:54:49.832Z,14.80
2017-10-11T16:57:16.014Z,14.80
2017-10-11T16:59:43.021Z,14.90
2017-10-11T17:02:09.208Z,14.80
2017-10-11T17:04:35.458Z,14.80
2017-10-11T17:07:01.653Z,14.70
2017-10-11T17:09:28.605Z,14.70
2017-10-11T17:11:55.573Z,14.70
2017-10-11T17:14:21.829Z,14.70
2017-10-11T17:16:48.753Z,14.70
2017-10-11T17:19:15.253Z,14.70
2017-10-11T17:21:42.212Z,14.70
2017-10-11T17:24:08.400Z,14.70
2017-10-11T17:26:34.706Z,14.70
2017-10-11T17:29:00.904Z,14.70
2017-10-11T17:31:27.133Z,14.80
2017-10-11T17:33:53.336Z,14.80
2017-10-11T17:36:20.289Z,14.80
2017-10-11T17:38:47.277Z,14.70
2017-10-11T17:41:13.513Z,14.70
2017-10-11T17:43:39.701Z,14.70
2017-10-11T17:46:05.926Z,14.70
2017-10-11T17:48:32.109Z,14.70
2017-10-11T17:50:58.409Z,14.70
2017-10-11T17:53:24.655Z,14.70
2017-10-11T17:55:50.846Z,14.70
2017-10-11T17:58:17.070Z,14.70
2017-10-11T18:00:43.264Z,14.70
2017-10-11T18:03:09.492Z,14.70
2017-10-11T18:05:35.669Z,14.70
2017-10-11T18:08:01.868Z,14.60
2017-10-11T18:10:29.134Z,14.70
2017-10-11T18:12:55.406Z,14.70
2017-10-11T18:15:21.600Z,14.60
2017-10-11T18:17:47.802Z,14.60
2017-10-11T18:20:14.733Z,14.70
2017-10-11T18:22:40.925Z,14.60
2017-10-11T18:25:07.147Z,14.60
2017-10-11T18:27:33.393Z,14.60
2017-10-11T18:29:59.598Z,14.60
2017-10-11T18:32:25.854Z,14.50
2017-10-11T18:34:52.041Z,14.50
2017-10-11T18:37:18.220Z,14.50
2017-10-11T18:39:44.433Z,14.50
2017-10-11T18:42:10.633Z,14.50
2017-10-11T18:44:36.833Z,14.50
2017-10-11T18:47:03.116Z,14.50
2017-10-11T18:49:29.316Z,14.50
2017-10-11T18:51:55.573Z,14.50
2017-10-11T18:54:21.788Z,14.50
2017-10-11T18:56:47.963Z,14.50
2017-10-11T18:59:14.933Z,14.50
2017-10-11T19:01:41.113Z,14.50
2017-10-11T19:04:07.345Z,14.50
2017-10-11T19:06:33.629Z,14.40
2017-10-11T19:08:59.877Z,14.40
2017-10-11T19:11:26.804Z,14.40
2017-10-11T19:13:53.051Z,14.40
2017-10-11T19:16:19.232Z,14.40
2017-10-11T19:18:46.257Z,14.50
2017-10-11T19:21:12.474Z,14.40
2017-10-11T19:23:38.916Z,14.50
2017-10-11T19:26:05.097Z,14.50
2017-10-11T19:28:31.309Z,14.50
2017-10-11T19:30:57.509Z,14.50
2017-10-11T19:33:24.453Z,14.50
2017-10-11T19:35:51.417Z,14.50
2017-10-11T19:38:17.629Z,14.50
2017-10-11T19:40:44.564Z,14.50
2017-10-11T19:43:10.770Z,14.40
2017-10-11T19:45:36.949Z,14.50
2017-10-11T19:48:03.175Z,14.40
2017-10-11T19:50:29.373Z,14.40
2017-10-11T19:52:55.572Z,14.50
2017-10-11T19:55:21.786Z,14.40
2017-10-11T19:57:47.990Z,14.50
2017-10-11T20:00:14.477Z,14.50
2017-10-11T20:02:40.688Z,14.50
2017-10-11T20:05:06.966Z,14.50
2017-10-11T20:07:33.962Z,14.40
2017-10-11T20:10:00.914Z,14.40
2017-10-11T20:12:27.877Z,14.40
2017-10-11T20:14:54.181Z,14.40
2017-10-11T20:17:20.375Z,14.30
2017-10-11T20:19:46.592Z,14.40
2017-10-11T20:22:12.773Z,14.40
2017-10-11T20:24:39.040Z,14.40
2017-10-11T20:27:05.988Z,14.30
2017-10-11T20:29:32.933Z,14.40
2017-10-11T20:31:59.881Z,14.30
2017-10-11T20:34:26.997Z,14.30
2017-10-11T20:36:53.200Z,14.30
2017-10-11T20:39:19.537Z,14.30
2017-10-11T20:41:45.869Z,14.30
2017-10-11T20:44:12.196Z,14.30
2017-10-11T20:46:38.420Z,14.30
2017-10-11T20:49:04.630Z,14.40
2017-10-11T20:51:30.848Z,14.40
2017-10-11T20:53:57.054Z,14.40
2017-10-11T20:56:23.998Z,14.40
2017-10-11T20:58:50.978Z,14.50
2017-10-11T21:01:17.205Z,14.50
2017-10-11T21:03:43.405Z,14.50
2017-10-11T21:06:10.329Z,14.40
2017-10-11T21:08:36.533Z,14.40
2017-10-11T21:11:02.717Z,14.40
2017-10-11T21:13:29.086Z,14.40
2017-10-11T21:15:55.268Z,14.40
2017-10-11T21:18:22.257Z,14.30
2017-10-11T21:20:48.448Z,14.30
2017-10-11T21:23:14.649Z,14.30
2017-10-11T21:25:40.821Z,14.20
2017-10-11T21:28:07.050Z,14.20
2017-10-11T21:30:33.283Z,14.20
2017-10-11T21:32:59.473Z,14.30
2017-10-11T21:35:26.473Z,14.30
2017-10-11T21:37:52.886Z,14.30
2017-10-11T21:40:19.098Z,14.30
2017-10-11T21:42:45.276Z,14.40
2017-10-11T21:45:11.506Z,14.40
2017-10-11T21:47:38.562Z,14.40
2017-10-11T21:50:04.773Z,14.50
2017-10-11T21:52:30.949Z,14.50
2017-10-11T21:54:57.141Z,14.50
2017-10-11T21:57:24.237Z,14.60
2017-10-11T21:59:50.445Z,14.60
2017-10-11T22:02:17.378Z,14.60
2017-10-11T22:04:44.501Z,14.60
2017-10-11T22:07:10.691Z,14.60
2017-10-11T22:09:36.963Z,14.70
2017-10-11T22:12:03.161Z,14.60
2017-10-11T22:14:29.353Z,14.70
2017-10-11T22:16:56.273Z,14.70
2017-10-11T22:19:22.472Z,14.60
2017-10-11T22:21:48.784Z,14.70
2017-10-11T22:24:15.020Z,14.70
2017-10-11T22:26:41.192Z,14.80
2017-10-11T22:29:07.406Z,14.70
2017-10-11T22:31:33.625Z,14.80
2017-10-11T22:33:59.834Z,14.70
2017-10-11T22:36:26.160Z,14.70
2017-10-11T22:38:52.370Z,14.70
2017-10-11T22:41:18.550Z,14.70
2017-10-11T22:43:44.750Z,14.70
2017-10-11T22:46:10.963Z,14.60
2017-10-11T22:48:37.181Z,14.60
2017-10-11T22:51:04.188Z,14.60
2017-10-11T22:53:30.461Z,14.60
2017-10-11T22:55:56.661Z,14.60
2017-10-11T22:58:23.573Z,14.70
2017-10-11T23:00:49.778Z,14.70
2017-10-11T23:03:15.968Z,14.70
2017-10-11T23:05:42.913Z,14.70
2017-10-11T23:08:09.276Z,14.70
2017-10-11T23:10:35.540Z,14.70
2017-10-11T23:13:01.716Z,14.70
2017-10-11T23:15:27.928Z,14.80
2017-10-11T23:17:54.890Z,14.80
2017-10-11T23:20:21.093Z,14.80
2017-10-11T23:22:48.010Z,14.80
2017-10-11T23:25:14.349Z,14.80
2017-10-11T23:27:40.553Z,14.80
2017-10-11T23:30:06.785Z,14.80
2017-10-11T23:32:33.704Z,14.80
2017-10-11T23:35:00.775Z,14.70
2017-10-11T23:37:28.449Z,14.80
2017-10-11T23:39:54.865Z,14.80
2017-10-11T23:42:21.057Z,14.80
2017-10-11T23:44:47.425Z,14.80
2017-10-11T23:47:13.610Z,14.80
2017-10-11T23:49:39.889Z,14.80
2017-10-11T23:52:06.085Z,14.90
2017-10-11T23:54:32.272Z,14.90
2017-10-11T23:56:59.380Z,14.90
2017-10-11T23:59:25.585Z,14.90
